sensor_id;sensor_type;location;lat;lon;timestamp;P1;durP1;ratioP1;P2;durP2;ratioP2
68216;SDS011;55037;52.354;4.992;2024-02-28T00:01:28;7.25;;;2.17;;
68216;SDS011;55037;52.354;4.992;2024-02-28T00:03:55;5.75;;;3.15;;
68216;SDS011;55037;52.354;4.992;2024-02-28T00:06:25;4.60;;;2.27;;
68216;SDS011;55037;52.354;4.992;2024-02-28T00:08:53;4.93;;;2.30;;
68216;SDS011;55037;52.354;4.992;2024-02-28T00:11:21;6.70;;;2.10;;
68216;SDS011;55037;52.354;4.992;2024-02-28T00:13:49;3.63;;;1.50;;
68216;SDS011;55037;52.354;4.992;2024-02-28T00:16:16;3.60;;;2.33;;
68216;SDS011;55037;52.354;4.992;2024-02-28T00:18:44;4.40;;;2.43;;
68216;SDS011;55037;52.354;4.992;2024-02-28T00:21:11;4.22;;;1.85;;
68216;SDS011;55037;52.354;4.992;2024-02-28T00:23:39;3.45;;;1.92;;
68216;SDS011;55037;52.354;4.992;2024-02-28T00:26:06;3.22;;;1.83;;
68216;SDS011;55037;52.354;4.992;2024-02-28T00:28:34;6.68;;;2.45;;
68216;SDS011;55037;52.354;4.992;2024-02-28T00:31:02;3.67;;;2.20;;
68216;SDS011;55037;52.354;4.992;2024-02-28T00:33:29;10.57;;;2.17;;
68216;SDS011;55037;52.354;4.992;2024-02-28T00:35:57;4.75;;;2.40;;
68216;SDS011;55037;52.354;4.992;2024-02-28T00:38:24;2.92;;;1.95;;
68216;SDS011;55037;52.354;4.992;2024-02-28T00:40:53;2.80;;;1.80;;
68216;SDS011;55037;52.354;4.992;2024-02-28T00:43:21;2.33;;;1.67;;
68216;SDS011;55037;52.354;4.992;2024-02-28T00:45:49;4.63;;;2.55;;
68216;SDS011;55037;52.354;4.992;2024-02-28T00:48:16;4.15;;;2.38;;
68216;SDS011;55037;52.354;4.992;2024-02-28T00:50:44;3.40;;;2.10;;
68216;SDS011;55037;52.354;4.992;2024-02-28T00:53:12;3.72;;;1.95;;
68216;SDS011;55037;52.354;4.992;2024-02-28T00:55:39;3.83;;;2.23;;
68216;SDS011;55037;52.354;4.992;2024-02-28T00:58:07;2.92;;;2.00;;
68216;SDS011;55037;52.354;4.992;2024-02-28T01:00:34;3.25;;;2.20;;
68216;SDS011;55037;52.354;4.992;2024-02-28T01:03:02;4.38;;;2.55;;
68216;SDS011;55037;52.354;4.992;2024-02-28T01:05:30;6.35;;;2.25;;
68216;SDS011;55037;52.354;4.992;2024-02-28T01:07:58;4.87;;;2.67;;
68216;SDS011;55037;52.354;4.992;2024-02-28T01:10:26;4.07;;;2.42;;
68216;SDS011;55037;52.354;4.992;2024-02-28T01:12:53;5.93;;;2.50;;
68216;SDS011;55037;52.354;4.992;2024-02-28T01:15:21;4.35;;;2.90;;
68216;SDS011;55037;52.354;4.992;2024-02-28T01:17:48;5.95;;;2.85;;
68216;SDS011;55037;52.354;4.992;2024-02-28T01:20:16;3.47;;;2.10;;
68216;SDS011;55037;52.354;4.992;2024-02-28T01:22:44;3.83;;;2.53;;
68216;SDS011;55037;52.354;4.992;2024-02-28T01:25:11;3.30;;;2.38;;
68216;SDS011;55037;52.354;4.992;2024-02-28T01:27:39;6.05;;;2.63;;
68216;SDS011;55037;52.354;4.992;2024-02-28T01:30:07;4.85;;;2.97;;
68216;SDS011;55037;52.354;4.992;2024-02-28T01:32:34;3.50;;;2.47;;
68216;SDS011;55037;52.354;4.992;2024-02-28T01:35:02;3.13;;;2.42;;
68216;SDS011;55037;52.354;4.992;2024-02-28T01:37:30;3.47;;;2.38;;
68216;SDS011;55037;52.354;4.992;2024-02-28T01:39:57;4.13;;;2.40;;
68216;SDS011;55037;52.354;4.992;2024-02-28T01:42:25;3.13;;;2.40;;
68216;SDS011;55037;52.354;4.992;2024-02-28T01:44:52;4.50;;;2.40;;
68216;SDS011;55037;52.354;4.992;2024-02-28T01:47:20;4.18;;;2.28;;
68216;SDS011;55037;52.354;4.992;2024-02-28T01:49:47;3.28;;;2.45;;
68216;SDS011;55037;52.354;4.992;2024-02-28T01:52:17;5.40;;;1.95;;
68216;SDS011;55037;52.354;4.992;2024-02-28T01:54:45;3.72;;;2.40;;
68216;SDS011;55037;52.354;4.992;2024-02-28T01:57:12;3.77;;;2.17;;
68216;SDS011;55037;52.354;4.992;2024-02-28T01:59:40;4.20;;;2.13;;
68216;SDS011;55037;52.354;4.992;2024-02-28T02:02:08;3.28;;;2.13;;
68216;SDS011;55037;52.354;4.992;2024-02-28T02:04:36;6.72;;;2.80;;
68216;SDS011;55037;52.354;4.992;2024-02-28T02:07:04;4.10;;;2.25;;
68216;SDS011;55037;52.354;4.992;2024-02-28T02:09:32;5.40;;;3.50;;
68216;SDS011;55037;52.354;4.992;2024-02-28T02:12:01;4.20;;;2.80;;
68216;SDS011;55037;52.354;4.992;2024-02-28T02:14:28;3.83;;;2.40;;
68216;SDS011;55037;52.354;4.992;2024-02-28T02:16:56;5.47;;;3.88;;
68216;SDS011;55037;52.354;4.992;2024-02-28T02:19:23;6.93;;;3.40;;
68216;SDS011;55037;52.354;4.992;2024-02-28T02:21:55;4.03;;;2.13;;
68216;SDS011;55037;52.354;4.992;2024-02-28T02:24:24;4.60;;;2.50;;
68216;SDS011;55037;52.354;4.992;2024-02-28T02:26:58;8.50;;;3.08;;
68216;SDS011;55037;52.354;4.992;2024-02-28T02:29:25;6.88;;;2.88;;
68216;SDS011;55037;52.354;4.992;2024-02-28T02:31:55;5.47;;;3.03;;
68216;SDS011;55037;52.354;4.992;2024-02-28T02:34:22;5.30;;;3.50;;
68216;SDS011;55037;52.354;4.992;2024-02-28T02:36:50;4.38;;;2.45;;
68216;SDS011;55037;52.354;4.992;2024-02-28T02:39:17;5.90;;;3.40;;
68216;SDS011;55037;52.354;4.992;2024-02-28T02:41:45;5.13;;;2.90;;
68216;SDS011;55037;52.354;4.992;2024-02-28T02:44:14;4.70;;;2.53;;
68216;SDS011;55037;52.354;4.992;2024-02-28T02:46:41;4.77;;;3.30;;
68216;SDS011;55037;52.354;4.992;2024-02-28T02:49:09;4.88;;;2.13;;
68216;SDS011;55037;52.354;4.992;2024-02-28T02:51:36;6.13;;;2.28;;
68216;SDS011;55037;52.354;4.992;2024-02-28T02:54:04;3.83;;;2.42;;
68216;SDS011;55037;52.354;4.992;2024-02-28T02:56:32;6.50;;;3.25;;
68216;SDS011;55037;52.354;4.992;2024-02-28T02:58:59;5.07;;;3.40;;
68216;SDS011;55037;52.354;4.992;2024-02-28T03:01:27;6.28;;;3.45;;
68216;SDS011;55037;52.354;4.992;2024-02-28T03:03:54;5.13;;;2.78;;
68216;SDS011;55037;52.354;4.992;2024-02-28T03:06:22;4.90;;;3.10;;
68216;SDS011;55037;52.354;4.992;2024-02-28T03:08:51;6.72;;;2.38;;
68216;SDS011;55037;52.354;4.992;2024-02-28T03:11:18;4.13;;;2.63;;
68216;SDS011;55037;52.354;4.992;2024-02-28T03:13:46;4.63;;;3.13;;
68216;SDS011;55037;52.354;4.992;2024-02-28T03:16:13;3.92;;;2.78;;
68216;SDS011;55037;52.354;4.992;2024-02-28T03:18:41;4.70;;;2.47;;
68216;SDS011;55037;52.354;4.992;2024-02-28T03:21:09;4.38;;;2.60;;
68216;SDS011;55037;52.354;4.992;2024-02-28T03:23:36;5.97;;;3.33;;
68216;SDS011;55037;52.354;4.992;2024-02-28T03:26:04;3.83;;;2.33;;
68216;SDS011;55037;52.354;4.992;2024-02-28T03:28:31;7.82;;;2.78;;
68216;SDS011;55037;52.354;4.992;2024-02-28T03:30:59;12.52;;;3.38;;
68216;SDS011;55037;52.354;4.992;2024-02-28T03:33:27;3.13;;;1.98;;
68216;SDS011;55037;52.354;4.992;2024-02-28T03:35:58;3.87;;;2.13;;
68216;SDS011;55037;52.354;4.992;2024-02-28T03:38:25;5.70;;;3.08;;
68216;SDS011;55037;52.354;4.992;2024-02-28T03:40:53;8.23;;;3.45;;
68216;SDS011;55037;52.354;4.992;2024-02-28T03:43:21;7.40;;;3.67;;
68216;SDS011;55037;52.354;4.992;2024-02-28T03:45:48;5.78;;;2.97;;
68216;SDS011;55037;52.354;4.992;2024-02-28T03:48:16;7.73;;;3.33;;
68216;SDS011;55037;52.354;4.992;2024-02-28T03:50:44;3.50;;;2.80;;
68216;SDS011;55037;52.354;4.992;2024-02-28T03:53:12;4.93;;;2.85;;
68216;SDS011;55037;52.354;4.992;2024-02-28T03:55:40;4.95;;;3.30;;
68216;SDS011;55037;52.354;4.992;2024-02-28T03:58:07;5.18;;;3.22;;
68216;SDS011;55037;52.354;4.992;2024-02-28T04:00:35;7.80;;;4.03;;
68216;SDS011;55037;52.354;4.992;2024-02-28T04:03:04;3.72;;;2.53;;
68216;SDS011;55037;52.354;4.992;2024-02-28T04:05:31;7.13;;;3.97;;
68216;SDS011;55037;52.354;4.992;2024-02-28T04:07:59;7.07;;;4.60;;
68216;SDS011;55037;52.354;4.992;2024-02-28T04:10:26;4.18;;;3.30;;
68216;SDS011;55037;52.354;4.992;2024-02-28T04:12:54;6.03;;;3.17;;
68216;SDS011;55037;52.354;4.992;2024-02-28T04:15:22;6.88;;;3.53;;
68216;SDS011;55037;52.354;4.992;2024-02-28T04:17:52;4.05;;;3.03;;
68216;SDS011;55037;52.354;4.992;2024-02-28T04:20:20;6.15;;;3.72;;
68216;SDS011;55037;52.354;4.992;2024-02-28T04:22:47;6.00;;;3.97;;
68216;SDS011;55037;52.354;4.992;2024-02-28T04:25:15;7.10;;;4.10;;
68216;SDS011;55037;52.354;4.992;2024-02-28T04:27:43;3.88;;;3.08;;
68216;SDS011;55037;52.354;4.992;2024-02-28T04:30:10;6.22;;;3.55;;
68216;SDS011;55037;52.354;4.992;2024-02-28T04:32:38;8.20;;;4.10;;
68216;SDS011;55037;52.354;4.992;2024-02-28T04:35:06;10.20;;;4.75;;
68216;SDS011;55037;52.354;4.992;2024-02-28T04:37:34;7.33;;;3.30;;
68216;SDS011;55037;52.354;4.992;2024-02-28T04:40:03;8.00;;;4.60;;
68216;SDS011;55037;52.354;4.992;2024-02-28T04:42:33;7.75;;;3.70;;
68216;SDS011;55037;52.354;4.992;2024-02-28T04:45:00;6.78;;;4.07;;
68216;SDS011;55037;52.354;4.992;2024-02-28T04:47:29;5.07;;;3.03;;
68216;SDS011;55037;52.354;4.992;2024-02-28T04:50:09;10.13;;;4.43;;
68216;SDS011;55037;52.354;4.992;2024-02-28T04:52:36;12.90;;;4.10;;
68216;SDS011;55037;52.354;4.992;2024-02-28T04:55:04;8.63;;;5.07;;
68216;SDS011;55037;52.354;4.992;2024-02-28T04:57:32;7.82;;;4.68;;
68216;SDS011;55037;52.354;4.992;2024-02-28T05:00:00;10.60;;;5.70;;
68216;SDS011;55037;52.354;4.992;2024-02-28T05:02:27;7.37;;;4.97;;
68216;SDS011;55037;52.354;4.992;2024-02-28T05:04:55;8.48;;;4.38;;
68216;SDS011;55037;52.354;4.992;2024-02-28T05:07:24;8.65;;;3.78;;
68216;SDS011;55037;52.354;4.992;2024-02-28T05:09:52;7.35;;;3.60;;
68216;SDS011;55037;52.354;4.992;2024-02-28T05:12:20;6.75;;;4.63;;
68216;SDS011;55037;52.354;4.992;2024-02-28T05:14:47;7.37;;;3.80;;
68216;SDS011;55037;52.354;4.992;2024-02-28T05:17:18;6.35;;;3.90;;
68216;SDS011;55037;52.354;4.992;2024-02-28T05:19:46;10.23;;;5.53;;
68216;SDS011;55037;52.354;4.992;2024-02-28T05:22:13;8.52;;;5.10;;
68216;SDS011;55037;52.354;4.992;2024-02-28T05:24:41;6.90;;;4.70;;
68216;SDS011;55037;52.354;4.992;2024-02-28T05:27:10;8.23;;;4.50;;
68216;SDS011;55037;52.354;4.992;2024-02-28T05:29:38;7.20;;;5.05;;
68216;SDS011;55037;52.354;4.992;2024-02-28T05:32:08;6.85;;;2.85;;
68216;SDS011;55037;52.354;4.992;2024-02-28T05:34:39;6.30;;;4.22;;
68216;SDS011;55037;52.354;4.992;2024-02-28T05:37:06;5.03;;;3.72;;
68216;SDS011;55037;52.354;4.992;2024-02-28T05:39:34;8.40;;;4.87;;
68216;SDS011;55037;52.354;4.992;2024-02-28T05:42:02;6.80;;;4.80;;
68216;SDS011;55037;52.354;4.992;2024-02-28T05:44:29;8.65;;;4.40;;
68216;SDS011;55037;52.354;4.992;2024-02-28T05:46:57;8.63;;;5.57;;
68216;SDS011;55037;52.354;4.992;2024-02-28T05:49:25;6.88;;;4.47;;
68216;SDS011;55037;52.354;4.992;2024-02-28T05:51:53;7.17;;;4.83;;
68216;SDS011;55037;52.354;4.992;2024-02-28T05:54:20;8.05;;;5.30;;
68216;SDS011;55037;52.354;4.992;2024-02-28T05:56:48;7.38;;;4.53;;
68216;SDS011;55037;52.354;4.992;2024-02-28T05:59:16;9.27;;;4.28;;
68216;SDS011;55037;52.354;4.992;2024-02-28T06:01:43;13.27;;;6.93;;
68216;SDS011;55037;52.354;4.992;2024-02-28T06:04:12;4.43;;;2.73;;
68216;SDS011;55037;52.354;4.992;2024-02-28T06:06:39;8.85;;;4.82;;
68216;SDS011;55037;52.354;4.992;2024-02-28T06:09:07;10.45;;;5.95;;
68216;SDS011;55037;52.354;4.992;2024-02-28T06:11:35;10.77;;;5.57;;
68216;SDS011;55037;52.354;4.992;2024-02-28T06:14:02;13.07;;;5.57;;
68216;SDS011;55037;52.354;4.992;2024-02-28T06:16:30;8.83;;;4.90;;
68216;SDS011;55037;52.354;4.992;2024-02-28T06:18:58;6.78;;;4.32;;
68216;SDS011;55037;52.354;4.992;2024-02-28T06:21:30;15.23;;;6.43;;
68216;SDS011;55037;52.354;4.992;2024-02-28T06:23:58;12.38;;;6.47;;
68216;SDS011;55037;52.354;4.992;2024-02-28T06:26:25;11.93;;;5.93;;
68216;SDS011;55037;52.354;4.992;2024-02-28T06:28:53;12.87;;;4.90;;
68216;SDS011;55037;52.354;4.992;2024-02-28T06:31:27;11.93;;;5.90;;
68216;SDS011;55037;52.354;4.992;2024-02-28T06:33:58;7.22;;;4.55;;
68216;SDS011;55037;52.354;4.992;2024-02-28T06:36:26;7.65;;;4.82;;
68216;SDS011;55037;52.354;4.992;2024-02-28T06:38:54;8.20;;;5.03;;
68216;SDS011;55037;52.354;4.992;2024-02-28T06:41:21;9.03;;;5.70;;
68216;SDS011;55037;52.354;4.992;2024-02-28T06:43:49;11.32;;;7.18;;
68216;SDS011;55037;52.354;4.992;2024-02-28T06:46:16;13.77;;;6.40;;
68216;SDS011;55037;52.354;4.992;2024-02-28T06:48:44;16.48;;;7.60;;
68216;SDS011;55037;52.354;4.992;2024-02-28T06:51:12;10.90;;;6.07;;
68216;SDS011;55037;52.354;4.992;2024-02-28T06:53:43;18.97;;;5.70;;
68216;SDS011;55037;52.354;4.992;2024-02-28T06:56:11;16.95;;;6.20;;
68216;SDS011;55037;52.354;4.992;2024-02-28T06:58:38;10.93;;;6.72;;
68216;SDS011;55037;52.354;4.992;2024-02-28T07:01:06;15.00;;;7.68;;
68216;SDS011;55037;52.354;4.992;2024-02-28T07:03:34;8.18;;;4.65;;
68216;SDS011;55037;52.354;4.992;2024-02-28T07:06:01;11.53;;;7.37;;
68216;SDS011;55037;52.354;4.992;2024-02-28T07:08:29;12.68;;;7.60;;
68216;SDS011;55037;52.354;4.992;2024-02-28T07:10:57;8.85;;;5.60;;
68216;SDS011;55037;52.354;4.992;2024-02-28T07:13:24;10.98;;;4.88;;
68216;SDS011;55037;52.354;4.992;2024-02-28T07:15:53;6.68;;;4.65;;
68216;SDS011;55037;52.354;4.992;2024-02-28T07:18:21;13.27;;;6.47;;
68216;SDS011;55037;52.354;4.992;2024-02-28T07:20:51;8.52;;;6.05;;
68216;SDS011;55037;52.354;4.992;2024-02-28T07:23:19;13.43;;;7.30;;
68216;SDS011;55037;52.354;4.992;2024-02-28T07:25:47;12.07;;;5.97;;
68216;SDS011;55037;52.354;4.992;2024-02-28T07:28:14;13.95;;;8.63;;
68216;SDS011;55037;52.354;4.992;2024-02-28T07:30:42;14.13;;;7.83;;
68216;SDS011;55037;52.354;4.992;2024-02-28T07:33:10;11.55;;;6.32;;
68216;SDS011;55037;52.354;4.992;2024-02-28T07:35:45;10.23;;;6.15;;
68216;SDS011;55037;52.354;4.992;2024-02-28T07:38:12;12.73;;;7.38;;
68216;SDS011;55037;52.354;4.992;2024-02-28T07:40:40;20.40;;;8.68;;
68216;SDS011;55037;52.354;4.992;2024-02-28T07:43:08;13.93;;;7.17;;
68216;SDS011;55037;52.354;4.992;2024-02-28T07:45:35;19.75;;;8.68;;
68216;SDS011;55037;52.354;4.992;2024-02-28T07:48:03;14.20;;;7.82;;
68216;SDS011;55037;52.354;4.992;2024-02-28T07:50:31;14.63;;;8.10;;
68216;SDS011;55037;52.354;4.992;2024-02-28T07:52:58;13.95;;;4.75;;
68216;SDS011;55037;52.354;4.992;2024-02-28T07:55:26;14.27;;;8.33;;
68216;SDS011;55037;52.354;4.992;2024-02-28T07:57:54;14.70;;;6.00;;
68216;SDS011;55037;52.354;4.992;2024-02-28T08:00:21;19.02;;;8.23;;
68216;SDS011;55037;52.354;4.992;2024-02-28T08:02:49;18.92;;;8.95;;
68216;SDS011;55037;52.354;4.992;2024-02-28T08:05:17;11.23;;;6.68;;
68216;SDS011;55037;52.354;4.992;2024-02-28T08:07:44;6.27;;;3.97;;
68216;SDS011;55037;52.354;4.992;2024-02-28T08:10:12;13.40;;;6.55;;
68216;SDS011;55037;52.354;4.992;2024-02-28T08:12:41;7.93;;;5.25;;
68216;SDS011;55037;52.354;4.992;2024-02-28T08:15:08;16.98;;;8.13;;
68216;SDS011;55037;52.354;4.992;2024-02-28T08:17:36;11.82;;;6.80;;
68216;SDS011;55037;52.354;4.992;2024-02-28T08:20:04;16.83;;;6.90;;
68216;SDS011;55037;52.354;4.992;2024-02-28T08:22:32;19.63;;;9.60;;
68216;SDS011;55037;52.354;4.992;2024-02-28T08:25:00;11.18;;;4.88;;
68216;SDS011;55037;52.354;4.992;2024-02-28T08:27:28;11.95;;;6.03;;
68216;SDS011;55037;52.354;4.992;2024-02-28T08:29:58;15.60;;;8.57;;
68216;SDS011;55037;52.354;4.992;2024-02-28T08:32:26;14.30;;;8.33;;
68216;SDS011;55037;52.354;4.992;2024-02-28T08:34:53;13.52;;;6.60;;
68216;SDS011;55037;52.354;4.992;2024-02-28T08:37:21;12.63;;;7.57;;
68216;SDS011;55037;52.354;4.992;2024-02-28T08:39:49;10.63;;;6.55;;
68216;SDS011;55037;52.354;4.992;2024-02-28T08:42:16;12.38;;;8.00;;
68216;SDS011;55037;52.354;4.992;2024-02-28T08:44:44;12.80;;;7.43;;
68216;SDS011;55037;52.354;4.992;2024-02-28T08:47:14;15.98;;;8.98;;
68216;SDS011;55037;52.354;4.992;2024-02-28T08:49:42;13.07;;;7.47;;
68216;SDS011;55037;52.354;4.992;2024-02-28T08:52:10;13.65;;;6.40;;
68216;SDS011;55037;52.354;4.992;2024-02-28T08:54:38;18.38;;;8.75;;
68216;SDS011;55037;52.354;4.992;2024-02-28T08:57:06;11.50;;;7.57;;
68216;SDS011;55037;52.354;4.992;2024-02-28T08:59:34;11.15;;;6.75;;
68216;SDS011;55037;52.354;4.992;2024-02-28T09:02:01;9.95;;;7.00;;
68216;SDS011;55037;52.354;4.992;2024-02-28T09:04:30;12.18;;;6.35;;
68216;SDS011;55037;52.354;4.992;2024-02-28T09:06:57;13.93;;;6.22;;
68216;SDS011;55037;52.354;4.992;2024-02-28T09:09:26;14.07;;;7.53;;
68216;SDS011;55037;52.354;4.992;2024-02-28T09:11:55;10.05;;;6.20;;
68216;SDS011;55037;52.354;4.992;2024-02-28T09:14:22;9.10;;;4.70;;
68216;SDS011;55037;52.354;4.992;2024-02-28T09:16:50;10.15;;;6.80;;
68216;SDS011;55037;52.354;4.992;2024-02-28T09:19:18;13.82;;;6.70;;
68216;SDS011;55037;52.354;4.992;2024-02-28T09:21:45;10.93;;;6.77;;
68216;SDS011;55037;52.354;4.992;2024-02-28T09:24:14;12.00;;;7.47;;
68216;SDS011;55037;52.354;4.992;2024-02-28T09:26:42;13.85;;;7.15;;
68216;SDS011;55037;52.354;4.992;2024-02-28T09:29:10;13.70;;;7.30;;
68216;SDS011;55037;52.354;4.992;2024-02-28T09:31:37;13.45;;;7.55;;
68216;SDS011;55037;52.354;4.992;2024-02-28T09:34:05;14.70;;;7.03;;
68216;SDS011;55037;52.354;4.992;2024-02-28T09:36:42;9.15;;;6.78;;
68216;SDS011;55037;52.354;4.992;2024-02-28T09:39:16;11.02;;;7.05;;
68216;SDS011;55037;52.354;4.992;2024-02-28T09:41:46;12.10;;;5.55;;
68216;SDS011;55037;52.354;4.992;2024-02-28T09:44:16;13.25;;;6.85;;
68216;SDS011;55037;52.354;4.992;2024-02-28T09:46:44;9.47;;;6.30;;
68216;SDS011;55037;52.354;4.992;2024-02-28T09:49:11;9.70;;;5.88;;
68216;SDS011;55037;52.354;4.992;2024-02-28T09:51:40;5.85;;;4.95;;
68216;SDS011;55037;52.354;4.992;2024-02-28T09:54:08;5.97;;;4.85;;
68216;SDS011;55037;52.354;4.992;2024-02-28T09:56:36;7.72;;;5.45;;
68216;SDS011;55037;52.354;4.992;2024-02-28T09:59:03;12.17;;;7.20;;
68216;SDS011;55037;52.354;4.992;2024-02-28T10:01:31;14.73;;;7.50;;
68216;SDS011;55037;52.354;4.992;2024-02-28T10:04:03;14.32;;;6.70;;
68216;SDS011;55037;52.354;4.992;2024-02-28T10:06:30;9.80;;;5.82;;
68216;SDS011;55037;52.354;4.992;2024-02-28T10:08:58;10.80;;;6.15;;
68216;SDS011;55037;52.354;4.992;2024-02-28T10:11:26;8.93;;;6.23;;
68216;SDS011;55037;52.354;4.992;2024-02-28T10:13:53;12.25;;;6.68;;
68216;SDS011;55037;52.354;4.992;2024-02-28T10:16:22;14.23;;;7.10;;
68216;SDS011;55037;52.354;4.992;2024-02-28T10:18:51;13.25;;;6.20;;
68216;SDS011;55037;52.354;4.992;2024-02-28T10:21:19;10.63;;;6.00;;
68216;SDS011;55037;52.354;4.992;2024-02-28T10:23:46;14.07;;;7.63;;
68216;SDS011;55037;52.354;4.992;2024-02-28T10:26:14;9.93;;;6.30;;
68216;SDS011;55037;52.354;4.992;2024-02-28T10:28:41;11.10;;;7.10;;
68216;SDS011;55037;52.354;4.992;2024-02-28T10:31:12;7.38;;;5.53;;
68216;SDS011;55037;52.354;4.992;2024-02-28T10:33:41;13.43;;;7.25;;
68216;SDS011;55037;52.354;4.992;2024-02-28T10:36:09;7.63;;;5.27;;
68216;SDS011;55037;52.354;4.992;2024-02-28T10:38:38;12.43;;;4.55;;
68216;SDS011;55037;52.354;4.992;2024-02-28T10:41:06;15.50;;;6.78;;
68216;SDS011;55037;52.354;4.992;2024-02-28T10:43:38;14.82;;;8.27;;
68216;SDS011;55037;52.354;4.992;2024-02-28T10:46:06;10.95;;;5.88;;
68216;SDS011;55037;52.354;4.992;2024-02-28T10:48:55;4.53;;;3.67;;
68216;SDS011;55037;52.354;4.992;2024-02-28T10:51:24;15.23;;;8.02;;
68216;SDS011;55037;52.354;4.992;2024-02-28T10:56:29;9.80;;;6.15;;
68216;SDS011;55037;52.354;4.992;2024-02-28T10:58:57;12.40;;;8.27;;
68216;SDS011;55037;52.354;4.992;2024-02-28T11:01:27;12.40;;;8.43;;
68216;SDS011;55037;52.354;4.992;2024-02-28T11:03:55;14.07;;;7.15;;
68216;SDS011;55037;52.354;4.992;2024-02-28T11:06:22;18.52;;;10.40;;
68216;SDS011;55037;52.354;4.992;2024-02-28T11:08:51;11.00;;;7.30;;
68216;SDS011;55037;52.354;4.992;2024-02-28T11:11:23;21.15;;;9.73;;
68216;SDS011;55037;52.354;4.992;2024-02-28T11:13:57;12.50;;;8.30;;
68216;SDS011;55037;52.354;4.992;2024-02-28T11:16:31;17.00;;;10.18;;
68216;SDS011;55037;52.354;4.992;2024-02-28T11:19:00;15.73;;;8.32;;
68216;SDS011;55037;52.354;4.992;2024-02-28T11:21:28;12.13;;;6.03;;
68216;SDS011;55037;52.354;4.992;2024-02-28T11:23:59;18.38;;;9.25;;
68216;SDS011;55037;52.354;4.992;2024-02-28T11:26:27;11.70;;;7.83;;
68216;SDS011;55037;52.354;4.992;2024-02-28T11:28:55;11.60;;;7.15;;
68216;SDS011;55037;52.354;4.992;2024-02-28T11:31:22;8.45;;;5.57;;
68216;SDS011;55037;52.354;4.992;2024-02-28T11:33:50;8.52;;;5.47;;
68216;SDS011;55037;52.354;4.992;2024-02-28T11:36:18;7.57;;;4.72;;
68216;SDS011;55037;52.354;4.992;2024-02-28T11:38:46;7.93;;;5.43;;
68216;SDS011;55037;52.354;4.992;2024-02-28T11:41:14;12.85;;;7.40;;
68216;SDS011;55037;52.354;4.992;2024-02-28T11:43:41;6.57;;;4.75;;
68216;SDS011;55037;52.354;4.992;2024-02-28T11:46:19;13.85;;;7.30;;
68216;SDS011;55037;52.354;4.992;2024-02-28T11:48:46;12.75;;;6.82;;
68216;SDS011;55037;52.354;4.992;2024-02-28T11:51:14;11.30;;;6.43;;
68216;SDS011;55037;52.354;4.992;2024-02-28T11:53:42;8.98;;;5.97;;
68216;SDS011;55037;52.354;4.992;2024-02-28T11:56:09;7.28;;;5.72;;
68216;SDS011;55037;52.354;4.992;2024-02-28T11:58:37;11.30;;;5.78;;
68216;SDS011;55037;52.354;4.992;2024-02-28T12:01:05;12.88;;;5.75;;
68216;SDS011;55037;52.354;4.992;2024-02-28T12:03:32;9.07;;;5.72;;
68216;SDS011;55037;52.354;4.992;2024-02-28T12:06:00;9.65;;;7.40;;
68216;SDS011;55037;52.354;4.992;2024-02-28T12:08:28;6.15;;;4.03;;
68216;SDS011;55037;52.354;4.992;2024-02-28T12:11:05;9.00;;;5.18;;
68216;SDS011;55037;52.354;4.992;2024-02-28T12:13:33;12.75;;;7.00;;
68216;SDS011;55037;52.354;4.992;2024-02-28T12:16:01;7.68;;;5.57;;
68216;SDS011;55037;52.354;4.992;2024-02-28T12:18:29;8.52;;;6.05;;
68216;SDS011;55037;52.354;4.992;2024-02-28T12:20:56;9.95;;;7.03;;
68216;SDS011;55037;52.354;4.992;2024-02-28T12:23:26;12.05;;;6.50;;
68216;SDS011;55037;52.354;4.992;2024-02-28T12:25:54;11.68;;;6.93;;
68216;SDS011;55037;52.354;4.992;2024-02-28T12:28:22;10.77;;;7.50;;
68216;SDS011;55037;52.354;4.992;2024-02-28T12:30:49;9.60;;;5.55;;
68216;SDS011;55037;52.354;4.992;2024-02-28T12:33:20;9.48;;;6.47;;
68216;SDS011;55037;52.354;4.992;2024-02-28T12:35:49;13.93;;;8.27;;
68216;SDS011;55037;52.354;4.992;2024-02-28T12:38:17;7.57;;;5.47;;
68216;SDS011;55037;52.354;4.992;2024-02-28T12:40:46;12.80;;;7.47;;
68216;SDS011;55037;52.354;4.992;2024-02-28T12:43:13;10.40;;;6.97;;
68216;SDS011;55037;52.354;4.992;2024-02-28T12:45:41;10.02;;;6.07;;
68216;SDS011;55037;52.354;4.992;2024-02-28T12:48:09;15.80;;;8.40;;
68216;SDS011;55037;52.354;4.992;2024-02-28T12:50:37;13.38;;;8.68;;
68216;SDS011;55037;52.354;4.992;2024-02-28T12:53:04;13.80;;;8.07;;
68216;SDS011;55037;52.354;4.992;2024-02-28T12:55:32;15.10;;;8.35;;
68216;SDS011;55037;52.354;4.992;2024-02-28T12:58:00;15.48;;;9.88;;
68216;SDS011;55037;52.354;4.992;2024-02-28T13:00:31;13.15;;;7.78;;
68216;SDS011;55037;52.354;4.992;2024-02-28T13:03:02;12.25;;;7.35;;
68216;SDS011;55037;52.354;4.992;2024-02-28T13:05:30;11.37;;;7.13;;
68216;SDS011;55037;52.354;4.992;2024-02-28T13:07:57;14.32;;;8.48;;
68216;SDS011;55037;52.354;4.992;2024-02-28T13:10:25;15.10;;;7.55;;
68216;SDS011;55037;52.354;4.992;2024-02-28T13:12:53;11.57;;;7.03;;
68216;SDS011;55037;52.354;4.992;2024-02-28T13:15:20;11.40;;;6.05;;
68216;SDS011;55037;52.354;4.992;2024-02-28T13:17:48;11.10;;;5.87;;
68216;SDS011;55037;52.354;4.992;2024-02-28T13:20:16;13.23;;;8.30;;
68216;SDS011;55037;52.354;4.992;2024-02-28T13:22:44;9.10;;;5.40;;
68216;SDS011;55037;52.354;4.992;2024-02-28T13:25:11;14.40;;;5.90;;
68216;SDS011;55037;52.354;4.992;2024-02-28T13:27:40;11.10;;;6.90;;
68216;SDS011;55037;52.354;4.992;2024-02-28T13:30:08;11.17;;;6.87;;
68216;SDS011;55037;52.354;4.992;2024-02-28T13:32:36;12.68;;;7.85;;
68216;SDS011;55037;52.354;4.992;2024-02-28T13:35:04;7.38;;;5.00;;
68216;SDS011;55037;52.354;4.992;2024-02-28T13:37:32;7.20;;;4.82;;
68216;SDS011;55037;52.354;4.992;2024-02-28T13:39:59;8.10;;;5.28;;
68216;SDS011;55037;52.354;4.992;2024-02-28T13:42:27;8.47;;;5.43;;
68216;SDS011;55037;52.354;4.992;2024-02-28T13:44:55;9.50;;;6.47;;
68216;SDS011;55037;52.354;4.992;2024-02-28T13:47:23;8.68;;;5.97;;
68216;SDS011;55037;52.354;4.992;2024-02-28T13:49:50;11.23;;;6.47;;
68216;SDS011;55037;52.354;4.992;2024-02-28T13:52:18;16.13;;;8.30;;
68216;SDS011;55037;52.354;4.992;2024-02-28T13:54:45;11.43;;;7.73;;
68216;SDS011;55037;52.354;4.992;2024-02-28T13:57:14;9.57;;;6.50;;
68216;SDS011;55037;52.354;4.992;2024-02-28T13:59:44;11.45;;;6.38;;
68216;SDS011;55037;52.354;4.992;2024-02-28T14:02:15;13.40;;;8.43;;
68216;SDS011;55037;52.354;4.992;2024-02-28T14:04:43;14.85;;;8.90;;
68216;SDS011;55037;52.354;4.992;2024-02-28T14:07:15;15.20;;;9.53;;
68216;SDS011;55037;52.354;4.992;2024-02-28T14:09:43;11.63;;;7.05;;
68216;SDS011;55037;52.354;4.992;2024-02-28T14:12:14;14.18;;;8.40;;
68216;SDS011;55037;52.354;4.992;2024-02-28T14:14:41;14.05;;;7.07;;
68216;SDS011;55037;52.354;4.992;2024-02-28T14:17:09;11.30;;;6.03;;
68216;SDS011;55037;52.354;4.992;2024-02-28T14:19:37;11.93;;;6.90;;
68216;SDS011;55037;52.354;4.992;2024-02-28T14:22:04;11.20;;;6.68;;
68216;SDS011;55037;52.354;4.992;2024-02-28T14:24:32;16.42;;;6.97;;
68216;SDS011;55037;52.354;4.992;2024-02-28T14:27:00;9.88;;;5.93;;
68216;SDS011;55037;52.354;4.992;2024-02-28T14:29:28;11.65;;;6.22;;
68216;SDS011;55037;52.354;4.992;2024-02-28T14:31:56;7.47;;;5.07;;
68216;SDS011;55037;52.354;4.992;2024-02-28T14:34:24;13.73;;;7.03;;
68216;SDS011;55037;52.354;4.992;2024-02-28T14:36:51;11.38;;;6.25;;
68216;SDS011;55037;52.354;4.992;2024-02-28T14:39:19;14.27;;;6.30;;
68216;SDS011;55037;52.354;4.992;2024-02-28T14:41:46;12.00;;;6.20;;
68216;SDS011;55037;52.354;4.992;2024-02-28T14:44:14;12.50;;;6.10;;
68216;SDS011;55037;52.354;4.992;2024-02-28T14:46:43;10.20;;;5.38;;
68216;SDS011;55037;52.354;4.992;2024-02-28T14:49:11;9.70;;;5.43;;